sensor_id;sensor_type;location;lat;lon;timestamp;pressure;altitude;pressure_sealevel;temperature;humidity
56182;BME280;51963;46.052;14.544;2023-02-08T00:01:45;100393.88;;;-5.63;100.00
56182;BME280;51963;46.052;14.544;2023-02-08T00:04:11;100390.38;;;-5.60;100.00
56182;BME280;51963;46.052;14.544;2023-02-08T00:06:37;100390.50;;;-5.66;100.00
56182;BME280;51963;46.052;14.544;2023-02-08T00:09:02;100392.94;;;-5.60;100.00
56182;BME280;51963;46.052;14.544;2023-02-08T00:11:28;100396.34;;;-5.58;100.00
56182;BME280;51963;46.052;14.544;2023-02-08T00:13:53;100396.31;;;-5.56;100.00
56182;BME280;51963;46.052;14.544;2023-02-08T00:16:19;100395.53;;;-5.60;100.00
56182;BME280;51963;46.052;14.544;2023-02-08T00:18:44;100396.44;;;-5.63;100.00
56182;BME280;51963;46.052;14.544;2023-02-08T00:21:10;100393.97;;;-5.67;100.00
56182;BME280;51963;46.052;14.544;2023-02-08T00:23:36;100402.56;;;-5.68;100.00
56182;BME280;51963;46.052;14.544;2023-02-08T00:26:02;100401.75;;;-5.70;100.00
56182;BME280;51963;46.052;14.544;2023-02-08T00:28:28;100403.56;;;-5.74;100.00
56182;BME280;51963;46.052;14.544;2023-02-08T00:30:53;100401.91;;;-5.77;100.00
56182;BME280;51963;46.052;14.544;2023-02-08T00:33:19;100402.78;;;-5.78;100.00
56182;BME280;51963;46.052;14.544;2023-02-08T00:35:45;100406.34;;;-5.83;100.00
56182;BME280;51963;46.052;14.544;2023-02-08T00:38:10;100403.78;;;-5.83;100.00
56182;BME280;51963;46.052;14.544;2023-02-08T00:40:36;100411.59;;;-5.88;100.00
56182;BME280;51963;46.052;14.544;2023-02-08T00:43:02;100404.81;;;-5.92;100.00
56182;BME280;51963;46.052;14.544;2023-02-08T00:45:28;100413.41;;;-5.93;100.00
56182;BME280;51963;46.052;14.544;2023-02-08T00:47:55;100417.81;;;-5.97;100.00
56182;BME280;51963;46.052;14.544;2023-02-08T00:50:21;100416.88;;;-5.94;100.00
56182;BME280;51963;46.052;14.544;2023-02-08T00:52:46;100423.78;;;-5.96;100.00
56182;BME280;51963;46.052;14.544;2023-02-08T00:55:12;100423.06;;;-6.01;100.00
56182;BME280;51963;46.052;14.544;2023-02-08T00:57:37;100429.16;;;-6.06;100.00
56182;BME280;51963;46.052;14.544;2023-02-08T01:00:03;100418.84;;;-6.04;100.00
56182;BME280;51963;46.052;14.544;2023-02-08T01:02:29;100417.97;;;-6.05;100.00
56182;BME280;51963;46.052;14.544;2023-02-08T01:04:57;100419.72;;;-6.05;100.00
56182;BME280;51963;46.052;14.544;2023-02-08T01:07:22;100422.31;;;-6.07;100.00
56182;BME280;51963;46.052;14.544;2023-02-08T01:09:48;100413.75;;;-6.09;100.00
56182;BME280;51963;46.052;14.544;2023-02-08T01:12:13;100419.78;;;-6.10;100.00
56182;BME280;51963;46.052;14.544;2023-02-08T01:14:39;100414.72;;;-6.13;100.00
56182;BME280;51963;46.052;14.544;2023-02-08T01:17:05;100414.81;;;-6.19;100.00
56182;BME280;51963;46.052;14.544;2023-02-08T01:19:31;100402.00;;;-6.22;100.00
56182;BME280;51963;46.052;14.544;2023-02-08T01:21:56;100410.63;;;-6.23;100.00
56182;BME280;51963;46.052;14.544;2023-02-08T01:24:22;100409.75;;;-6.22;100.00
56182;BME280;51963;46.052;14.544;2023-02-08T01:26:49;100396.88;;;-6.22;100.00
56182;BME280;51963;46.052;14.544;2023-02-08T01:29:14;100401.97;;;-6.19;100.00
56182;BME280;51963;46.052;14.544;2023-02-08T01:31:40;100398.50;;;-6.18;100.00
56182;BME280;51963;46.052;14.544;2023-02-08T01:34:07;100394.28;;;-6.21;100.00
56182;BME280;51963;46.052;14.544;2023-02-08T01:36:33;100390.81;;;-6.20;100.00
56182;BME280;51963;46.052;14.544;2023-02-08T01:38:59;100399.44;;;-6.22;100.00
56182;BME280;51963;46.052;14.544;2023-02-08T01:41:26;100387.50;;;-6.26;100.00
56182;BME280;51963;46.052;14.544;2023-02-08T01:46:45;100395.41;;;-6.36;100.00
56182;BME280;51963;46.052;14.544;2023-02-08T01:49:19;100394.66;;;-6.39;100.00
56182;BME280;51963;46.052;14.544;2023-02-08T01:51:47;100393.00;;;-6.43;100.00
56182;BME280;51963;46.052;14.544;2023-02-08T01:54:14;100391.25;;;-6.43;100.00
56182;BME280;51963;46.052;14.544;2023-02-08T01:56:41;100388.69;;;-6.43;100.00
56182;BME280;51963;46.052;14.544;2023-02-08T01:59:20;100383.47;;;-6.40;100.00
56182;BME280;51963;46.052;14.544;2023-02-08T02:01:48;100385.25;;;-6.42;100.00
56182;BME280;51963;46.052;14.544;2023-02-08T02:04:15;100384.41;;;-6.42;100.00
56182;BME280;51963;46.052;14.544;2023-02-08T02:06:47;100380.97;;;-6.43;100.00
56182;BME280;51963;46.052;14.544;2023-02-08T02:09:18;100375.81;;;-6.43;100.00
56182;BME280;51963;46.052;14.544;2023-02-08T02:11:45;100378.22;;;-6.34;100.00
56182;BME280;51963;46.052;14.544;2023-02-08T02:14:11;100375.69;;;-6.37;100.00
56182;BME280;51963;46.052;14.544;2023-02-08T02:16:37;100373.16;;;-6.38;100.00
56182;BME280;51963;46.052;14.544;2023-02-08T02:19:03;100380.03;;;-6.39;100.00
56182;BME280;51963;46.052;14.544;2023-02-08T02:24:15;100378.44;;;-6.46;100.00
56182;BME280;51963;46.052;14.544;2023-02-08T02:26:55;100376.75;;;-6.47;100.00
56182;BME280;51963;46.052;14.544;2023-02-08T02:44:53;100384.00;;;-6.68;100.00
56182;BME280;51963;46.052;14.544;2023-02-08T02:47:37;100380.63;;;-6.70;100.00
56182;BME280;51963;46.052;14.544;2023-02-08T02:52:42;100398.63;;;-6.70;100.00
56182;BME280;51963;46.052;14.544;2023-02-08T02:55:13;100398.69;;;-6.73;100.00
56182;BME280;51963;46.052;14.544;2023-02-08T02:57:40;100397.03;;;-6.77;100.00
56182;BME280;51963;46.052;14.544;2023-02-08T03:00:07;100403.94;;;-6.78;100.00
56182;BME280;51963;46.052;14.544;2023-02-08T03:02:36;100402.22;;;-6.79;100.00
56182;BME280;51963;46.052;14.544;2023-02-08T03:05:02;100397.91;;;-6.78;100.00
56182;BME280;51963;46.052;14.544;2023-02-08T03:07:36;100404.81;;;-6.79;100.00
56182;BME280;51963;46.052;14.544;2023-02-08T03:24:59;100408.41;;;-6.89;100.00
56182;BME280;51963;46.052;14.544;2023-02-08T03:27:27;100412.84;;;-6.97;100.00
56182;BME280;51963;46.052;14.544;2023-02-08T03:32:25;100431.03;;;-7.10;100.00
56182;BME280;51963;46.052;14.544;2023-02-08T03:37:21;100424.25;;;-7.14;100.00
56182;BME280;51963;46.052;14.544;2023-02-08T03:39:49;100422.50;;;-7.13;100.00
56182;BME280;51963;46.052;14.544;2023-02-08T03:42:18;100419.06;;;-7.12;100.00
56182;BME280;51963;46.052;14.544;2023-02-08T03:44:50;100417.38;;;-7.13;100.00
56182;BME280;51963;46.052;14.544;2023-02-08T03:47:21;100419.78;;;-7.04;100.00
56182;BME280;51963;46.052;14.544;2023-02-08T03:49:48;100412.03;;;-7.01;100.00
56182;BME280;51963;46.052;14.544;2023-02-08T03:52:16;100411.75;;;-6.85;100.00
56182;BME280;51963;46.052;14.544;2023-02-08T03:54:58;100412.38;;;-6.71;100.00
56182;BME280;51963;46.052;14.544;2023-02-08T03:57:28;100414.94;;;-6.71;100.00
56182;BME280;51963;46.052;14.544;2023-02-08T04:00:03;100413.19;;;-6.69;100.00
56182;BME280;51963;46.052;14.544;2023-02-08T04:02:38;100420.03;;;-6.68;100.00
56182;BME280;51963;46.052;14.544;2023-02-08T04:05:05;100417.47;;;-6.68;100.00
56182;BME280;51963;46.052;14.544;2023-02-08T04:07:31;100424.28;;;-6.65;100.00
56182;BME280;51963;46.052;14.544;2023-02-08T04:09:57;100411.38;;;-6.64;100.00
56182;BME280;51963;46.052;14.544;2023-02-08T04:12:23;100423.38;;;-6.63;100.00
56182;BME280;51963;46.052;14.544;2023-02-08T04:14:48;100420.69;;;-6.56;100.00
56182;BME280;51963;46.052;14.544;2023-02-08T04:17:16;100409.50;;;-6.55;100.00
56182;BME280;51963;46.052;14.544;2023-02-08T04:19:41;100411.97;;;-6.49;100.00
56182;BME280;51963;46.052;14.544;2023-02-08T04:22:07;100408.50;;;-6.46;100.00
56182;BME280;51963;46.052;14.544;2023-02-08T04:24:32;100412.63;;;-6.38;100.00
56182;BME280;51963;46.052;14.544;2023-02-08T04:26:58;100403.84;;;-6.27;100.00
56182;BME280;51963;46.052;14.544;2023-02-08T04:29:24;100410.72;;;-6.28;100.00
56182;BME280;51963;46.052;14.544;2023-02-08T04:31:49;100406.34;;;-6.23;100.00
56182;BME280;51963;46.052;14.544;2023-02-08T04:34:15;100404.50;;;-6.17;100.00
56182;BME280;51963;46.052;14.544;2023-02-08T04:36:40;100408.47;;;-6.01;100.00
56182;BME280;51963;46.052;14.544;2023-02-08T04:39:06;100400.31;;;-5.82;100.00
56182;BME280;51963;46.052;14.544;2023-02-08T04:41:31;100399.25;;;-5.74;100.00
56182;BME280;51963;46.052;14.544;2023-02-08T04:43:57;100406.63;;;-5.56;100.00
56182;BME280;51963;46.052;14.544;2023-02-08T04:46:22;100407.47;;;-5.56;100.00
56182;BME280;51963;46.052;14.544;2023-02-08T04:48:48;100404.13;;;-5.61;100.00
56182;BME280;51963;46.052;14.544;2023-02-08T04:51:14;100408.88;;;-5.82;100.00
56182;BME280;51963;46.052;14.544;2023-02-08T04:53:39;100409.50;;;-6.10;100.00
56182;BME280;51963;46.052;14.544;2023-02-08T04:56:08;100409.34;;;-6.02;100.00
56182;BME280;51963;46.052;14.544;2023-02-08T04:58:34;100400.19;;;-6.17;100.00
56182;BME280;51963;46.052;14.544;2023-02-08T05:00:59;100397.97;;;-6.34;100.00
56182;BME280;51963;46.052;14.544;2023-02-08T05:03:25;100400.38;;;-6.26;100.00
56182;BME280;51963;46.052;14.544;2023-02-08T05:05:56;100410.81;;;-6.32;100.00
56182;BME280;51963;46.052;14.544;2023-02-08T05:08:22;100413.81;;;-6.10;100.00
56182;BME280;51963;46.052;14.544;2023-02-08T05:10:48;100408.97;;;-6.27;100.00
56182;BME280;51963;46.052;14.544;2023-02-08T05:13:13;100421.41;;;-6.04;100.00
56182;BME280;51963;46.052;14.544;2023-02-08T05:15:39;100419.28;;;-6.27;100.00
56182;BME280;51963;46.052;14.544;2023-02-08T05:18:05;100425.81;;;-6.55;100.00
56182;BME280;51963;46.052;14.544;2023-02-08T05:20:30;100422.31;;;-6.52;100.00
56182;BME280;51963;46.052;14.544;2023-02-08T05:22:58;100420.38;;;-6.39;100.00
56182;BME280;51963;46.052;14.544;2023-02-08T05:25:23;100418.84;;;-6.50;100.00
56182;BME280;51963;46.052;14.544;2023-02-08T05:27:51;100425.81;;;-6.55;100.00
56182;BME280;51963;46.052;14.544;2023-02-08T05:30:16;100428.44;;;-6.58;100.00
56182;BME280;51963;46.052;14.544;2023-02-08T05:32:42;100425.13;;;-6.65;100.00
56182;BME280;51963;46.052;14.544;2023-02-08T05:35:07;100418.28;;;-6.66;100.00
56182;BME280;51963;46.052;14.544;2023-02-08T05:37:33;100434.69;;;-6.71;100.00
56182;BME280;51963;46.052;14.544;2023-02-08T05:40:01;100435.56;;;-6.74;100.00
56182;BME280;51963;46.052;14.544;2023-02-08T05:42:26;100443.28;;;-6.72;100.00
56182;BME280;51963;46.052;14.544;2023-02-08T05:44:52;100438.13;;;-6.72;100.00
56182;BME280;51963;46.052;14.544;2023-02-08T05:47:17;100440.66;;;-6.71;100.00
56182;BME280;51963;46.052;14.544;2023-02-08T05:49:43;100438.91;;;-6.69;100.00
56182;BME280;51963;46.052;14.544;2023-02-08T05:52:08;100443.91;;;-6.59;100.00
56182;BME280;51963;46.052;14.544;2023-02-08T05:54:34;100435.84;;;-6.41;100.00
56182;BME280;51963;46.052;14.544;2023-02-08T05:57:00;100439.81;;;-6.24;100.00
56182;BME280;51963;46.052;14.544;2023-02-08T05:59:25;100446.59;;;-6.20;100.00
56182;BME280;51963;46.052;14.544;2023-02-08T06:01:51;100446.72;;;-6.26;100.00
56182;BME280;51963;46.052;14.544;2023-02-08T06:04:16;100451.16;;;-5.91;100.00
56182;BME280;51963;46.052;14.544;2023-02-08T06:06:42;100446.03;;;-5.92;100.00
56182;BME280;51963;46.052;14.544;2023-02-08T06:09:07;100447.28;;;-5.69;100.00
56182;BME280;51963;46.052;14.544;2023-02-08T06:11:33;100454.72;;;-5.55;100.00
56182;BME280;51963;46.052;14.544;2023-02-08T06:14:00;100457.31;;;-5.57;100.00
56182;BME280;51963;46.052;14.544;2023-02-08T06:16:28;100451.78;;;-5.79;100.00
56182;BME280;51963;46.052;14.544;2023-02-08T06:18:54;100457.84;;;-5.82;100.00
56182;BME280;51963;46.052;14.544;2023-02-08T06:21:19;100463.94;;;-5.86;100.00
56182;BME280;51963;46.052;14.544;2023-02-08T06:23:45;100461.59;;;-5.98;100.00
56182;BME280;51963;46.052;14.544;2023-02-08T06:26:10;100460.47;;;-5.83;100.00
56182;BME280;51963;46.052;14.544;2023-02-08T06:28:36;100463.88;;;-5.83;100.00
56182;BME280;51963;46.052;14.544;2023-02-08T06:31:01;100459.75;;;-5.49;100.00
56182;BME280;51963;46.052;14.544;2023-02-08T06:33:27;100458.75;;;-5.43;100.00
56182;BME280;51963;46.052;14.544;2023-02-08T06:35:52;100469.13;;;-5.47;100.00
56182;BME280;51963;46.052;14.544;2023-02-08T06:38:18;100474.72;;;-5.26;100.00
56182;BME280;51963;46.052;14.544;2023-02-08T06:40:47;100475.25;;;-5.13;100.00
56182;BME280;51963;46.052;14.544;2023-02-08T06:43:13;100476.00;;;-5.08;100.00
56182;BME280;51963;46.052;14.544;2023-02-08T06:45:38;100483.06;;;-5.16;100.00
56182;BME280;51963;46.052;14.544;2023-02-08T06:48:04;100483.41;;;-5.30;100.00
56182;BME280;51963;46.052;14.544;2023-02-08T06:50:29;100493.06;;;-5.41;100.00
56182;BME280;51963;46.052;14.544;2023-02-08T06:52:55;100481.41;;;-5.58;100.00
56182;BME280;51963;46.052;14.544;2023-02-08T06:55:21;100488.13;;;-5.51;100.00
56182;BME280;51963;46.052;14.544;2023-02-08T06:57:46;100491.69;;;-5.58;100.00
56182;BME280;51963;46.052;14.544;2023-02-08T07:00:12;100494.03;;;-5.46;100.00
56182;BME280;51963;46.052;14.544;2023-02-08T07:02:37;100493.06;;;-5.41;100.00
56182;BME280;51963;46.052;14.544;2023-02-08T07:05:03;100500.66;;;-5.35;100.00
56182;BME280;51963;46.052;14.544;2023-02-08T07:07:29;100504.78;;;-5.26;100.00
56182;BME280;51963;46.052;14.544;2023-02-08T07:09:55;100508.31;;;-5.71;100.00
56182;BME280;51963;46.052;14.544;2023-02-08T07:12:20;100508.66;;;-5.90;100.00
56182;BME280;51963;46.052;14.544;2023-02-08T07:14:46;100513.47;;;-5.71;100.00
56182;BME280;51963;46.052;14.544;2023-02-08T07:17:12;100514.47;;;-5.79;100.00
56182;BME280;51963;46.052;14.544;2023-02-08T07:19:38;100516.28;;;-5.84;100.00
56182;BME280;51963;46.052;14.544;2023-02-08T07:22:03;100523.94;;;-5.79;100.00
56182;BME280;51963;46.052;14.544;2023-02-08T07:24:38;100522.56;;;-5.53;100.00
56182;BME280;51963;46.052;14.544;2023-02-08T07:27:05;100525.50;;;-5.31;100.00
56182;BME280;51963;46.052;14.544;2023-02-08T07:29:31;100527.25;;;-5.32;100.00
56182;BME280;51963;46.052;14.544;2023-02-08T07:32:00;100521.81;;;-5.18;100.00
56182;BME280;51963;46.052;14.544;2023-02-08T07:34:30;100537.09;;;-5.08;100.00
56182;BME280;51963;46.052;14.544;2023-02-08T07:36:56;100532.72;;;-5.06;100.00
56182;BME280;51963;46.052;14.544;2023-02-08T07:39:22;100531.13;;;-5.12;100.00
56182;BME280;51963;46.052;14.544;2023-02-08T07:41:47;100514.59;;;-5.03;100.00
56182;BME280;51963;46.052;14.544;2023-02-08T07:44:13;100537.59;;;-5.33;100.00
56182;BME280;51963;46.052;14.544;2023-02-08T07:46:38;100542.47;;;-5.19;100.00
56182;BME280;51963;46.052;14.544;2023-02-08T07:49:04;100540.19;;;-4.94;100.00
56182;BME280;51963;46.052;14.544;2023-02-08T07:51:30;100540.44;;;-4.67;100.00
56182;BME280;51963;46.052;14.544;2023-02-08T07:53:55;100544.66;;;-4.64;100.00
56182;BME280;51963;46.052;14.544;2023-02-08T07:56:21;100539.31;;;-4.57;100.00
56182;BME280;51963;46.052;14.544;2023-02-08T07:58:46;100535.94;;;-4.60;100.00
56182;BME280;51963;46.052;14.544;2023-02-08T08:01:12;100537.19;;;-4.75;100.00
56182;BME280;51963;46.052;14.544;2023-02-08T08:03:37;100528.19;;;-4.95;100.00
56182;BME280;51963;46.052;14.544;2023-02-08T08:06:03;100538.19;;;-5.20;100.00
56182;BME280;51963;46.052;14.544;2023-02-08T08:08:28;100535.72;;;-4.87;100.00
56182;BME280;51963;46.052;14.544;2023-02-08T08:10:54;100549.41;;;-4.47;100.00
56182;BME280;51963;46.052;14.544;2023-02-08T08:13:21;100555.41;;;-4.45;100.00
56182;BME280;51963;46.052;14.544;2023-02-08T08:15:47;100552.81;;;-4.45;100.00
56182;BME280;51963;46.052;14.544;2023-02-08T08:18:12;100553.91;;;-4.92;100.00
56182;BME280;51963;46.052;14.544;2023-02-08T08:20:38;100549.56;;;-4.90;100.00
56182;BME280;51963;46.052;14.544;2023-02-08T08:23:04;100550.09;;;-4.75;100.00
56182;BME280;51963;46.052;14.544;2023-02-08T08:25:29;100543.94;;;-4.35;100.00
56182;BME280;51963;46.052;14.544;2023-02-08T08:27:55;100544.53;;;-4.23;100.00
56182;BME280;51963;46.052;14.544;2023-02-08T08:30:20;100547.53;;;-4.07;100.00
56182;BME280;51963;46.052;14.544;2023-02-08T08:32:46;100552.34;;;-3.93;100.00
56182;BME280;51963;46.052;14.544;2023-02-08T08:35:12;100554.28;;;-4.35;100.00
56182;BME280;51963;46.052;14.544;2023-02-08T08:37:37;100548.03;;;-4.61;100.00
56182;BME280;51963;46.052;14.544;2023-02-08T08:40:03;100547.25;;;-4.64;100.00
56182;BME280;51963;46.052;14.544;2023-02-08T08:42:31;100542.06;;;-4.63;100.00
56182;BME280;51963;46.052;14.544;2023-02-08T08:44:57;100547.47;;;-4.74;100.00
56182;BME280;51963;46.052;14.544;2023-02-08T08:47:22;100549.78;;;-4.27;100.00
56182;BME280;51963;46.052;14.544;2023-02-08T08:49:48;100544.78;;;-4.00;100.00
56182;BME280;51963;46.052;14.544;2023-02-08T08:52:17;100556.06;;;-4.37;100.00
56182;BME280;51963;46.052;14.544;2023-02-08T08:54:42;100563.81;;;-4.37;100.00
56182;BME280;51963;46.052;14.544;2023-02-08T08:57:08;100558.66;;;-4.04;100.00
56182;BME280;51963;46.052;14.544;2023-02-08T08:59:33;100564.88;;;-3.78;100.00
56182;BME280;51963;46.052;14.544;2023-02-08T09:01:59;100559.38;;;-3.67;100.00
56182;BME280;51963;46.052;14.544;2023-02-08T09:04:24;100558.56;;;-3.69;100.00
56182;BME280;51963;46.052;14.544;2023-02-08T09:06:50;100569.31;;;-3.83;100.00
56182;BME280;51963;46.052;14.544;2023-02-08T09:09:16;100564.69;;;-3.72;100.00
56182;BME280;51963;46.052;14.544;2023-02-08T09:11:42;100577.03;;;-3.50;100.00
56182;BME280;51963;46.052;14.544;2023-02-08T09:14:07;100563.75;;;-3.37;100.00
56182;BME280;51963;46.052;14.544;2023-02-08T09:16:33;100567.13;;;-3.35;100.00
56182;BME280;51963;46.052;14.544;2023-02-08T09:19:00;100578.91;;;-3.57;100.00
56182;BME280;51963;46.052;14.544;2023-02-08T09:21:26;100572.47;;;-3.42;100.00
56182;BME280;51963;46.052;14.544;2023-02-08T09:23:51;100572.41;;;-3.39;100.00
56182;BME280;51963;46.052;14.544;2023-02-08T09:26:17;100574.72;;;-3.29;100.00
56182;BME280;51963;46.052;14.544;2023-02-08T09:28:44;100571.25;;;-3.30;100.00
56182;BME280;51963;46.052;14.544;2023-02-08T09:31:10;100571.72;;;-3.15;100.00
56182;BME280;51963;46.052;14.544;2023-02-08T09:33:36;100576.22;;;-2.92;100.00
56182;BME280;51963;46.052;14.544;2023-02-08T09:36:04;100571.09;;;-2.67;100.00
56182;BME280;51963;46.052;14.544;2023-02-08T09:38:30;100565.88;;;-2.38;100.00
56182;BME280;51963;46.052;14.544;2023-02-08T09:46:14;100571.56;;;-2.54;100.00
56182;BME280;51963;46.052;14.544;2023-02-08T09:48:40;100575.59;;;-1.93;99.02
56182;BME280;51963;46.052;14.544;2023-02-08T09:53:51;100564.81;;;-1.33;96.41
56182;BME280;51963;46.052;14.544;2023-02-08T09:56:20;100566.13;;;-1.21;93.11
56182;BME280;51963;46.052;14.544;2023-02-08T09:58:48;100566.94;;;-1.20;93.69
56182;BME280;51963;46.052;14.544;2023-02-08T10:03:47;100563.53;;;-0.98;94.27
56182;BME280;51963;46.052;14.544;2023-02-08T10:06:15;100562.44;;;-0.70;91.84
56182;BME280;51963;46.052;14.544;2023-02-08T10:08:42;100570.97;;;-0.03;90.77
56182;BME280;51963;46.052;14.544;2023-02-08T10:36:42;100521.19;;;4.55;67.50
56182;BME280;51963;46.052;14.544;2023-02-08T10:39:15;100533.81;;;4.34;68.01
56182;BME280;51963;46.052;14.544;2023-02-08T10:41:41;100522.91;;;4.13;66.13
56182;BME280;51963;46.052;14.544;2023-02-08T10:44:25;100521.03;;;2.44;70.56
56182;BME280;51963;46.052;14.544;2023-02-08T10:47:01;100527.78;;;2.81;72.09
56182;BME280;51963;46.052;14.544;2023-02-08T10:52:01;100525.16;;;1.64;72.87
56182;BME280;51963;46.052;14.544;2023-02-08T10:54:27;100522.66;;;1.08;74.96
56182;BME280;51963;46.052;14.544;2023-02-08T10:57:02;100518.56;;;1.21;75.84
56182;BME280;51963;46.052;14.544;2023-02-08T10:59:30;100524.22;;;1.12;77.00
56182;BME280;51963;46.052;14.544;2023-02-08T11:01:57;100522.53;;;0.92;77.38
56182;BME280;51963;46.052;14.544;2023-02-08T11:04:23;100515.91;;;1.04;75.55
56182;BME280;51963;46.052;14.544;2023-02-08T11:06:51;100510.94;;;0.80;76.58
56182;BME280;51963;46.052;14.544;2023-02-08T11:11:49;100504.59;;;1.22;77.38
56182;BME280;51963;46.052;14.544;2023-02-08T11:14:26;100503.91;;;1.19;73.78
56182;BME280;51963;46.052;14.544;2023-02-08T11:16:56;100500.38;;;0.64;74.47
56182;BME280;51963;46.052;14.544;2023-02-08T11:19:35;100501.13;;;1.04;71.81
56182;BME280;51963;46.052;14.544;2023-02-08T11:22:16;100499.91;;;1.11;70.98
56182;BME280;51963;46.052;14.544;2023-02-08T11:24:43;100502.25;;;0.98;69.44
56182;BME280;51963;46.052;14.544;2023-02-08T11:32:36;100494.66;;;0.94;68.19
56182;BME280;51963;46.052;14.544;2023-02-08T11:37:50;100489.78;;;0.68;68.15
56182;BME280;51963;46.052;14.544;2023-02-08T11:42:47;100487.81;;;0.73;66.46
56182;BME280;51963;46.052;14.544;2023-02-08T11:45:23;100482.44;;;0.77;66.15
56182;BME280;51963;46.052;14.544;2023-02-08T11:47:50;100483.00;;;0.83;67.13
56182;BME280;51963;46.052;14.544;2023-02-08T11:50:37;100481.19;;;0.66;65.13
56182;BME280;51963;46.052;14.544;2023-02-08T11:53:35;100483.44;;;0.55;64.40
56182;BME280;51963;46.052;14.544;2023-02-08T11:56:00;100475.56;;;0.76;64.15
56182;BME280;51963;46.052;14.544;2023-02-08T11:58:26;100475.06;;;0.67;64.78
56182;BME280;51963;46.052;14.544;2023-02-08T12:00:59;100481.41;;;0.62;64.23
56182;BME280;51963;46.052;14.544;2023-02-08T12:03:35;100479.84;;;0.77;64.18
56182;BME280;51963;46.052;14.544;2023-02-08T12:08:49;100471.03;;;0.79;64.98
56182;BME280;51963;46.052;14.544;2023-02-08T12:11:25;100464.63;;;1.04;63.45
56182;BME280;51963;46.052;14.544;2023-02-08T12:19:42;100461.28;;;1.37;62.69
56182;BME280;51963;46.052;14.544;2023-02-08T12:22:05;100448.94;;;1.58;63.22
56182;BME280;51963;46.052;14.544;2023-02-08T12:29:40;100449.03;;;1.39;63.22
56182;BME280;51963;46.052;14.544;2023-02-08T12:32:18;100444.88;;;1.17;63.24
56182;BME280;51963;46.052;14.544;2023-02-08T12:53:02;100427.81;;;1.29;62.06
56182;BME280;51963;46.052;14.544;2023-02-08T12:55:34;100416.75;;;1.42;61.85
56182;BME280;51963;46.052;14.544;2023-02-08T12:58:21;100421.38;;;1.19;61.92
56182;BME280;51963;46.052;14.544;2023-02-08T13:00:49;100412.16;;;1.29;62.53
56182;BME280;51963;46.052;14.544;2023-02-08T13:06:00;100407.56;;;1.35;61.62
56182;BME280;51963;46.052;14.544;2023-02-08T13:08:43;100408.50;;;0.98;62.67
56182;BME280;51963;46.052;14.544;2023-02-08T13:13:57;100401.13;;;0.89;61.94
56182;BME280;51963;46.052;14.544;2023-02-08T13:16:30;100401.75;;;0.94;62.09
56182;BME280;51963;46.052;14.544;2023-02-08T13:21:43;100405.25;;;0.93;61.98
56182;BME280;51963;46.052;14.544;2023-02-08T13:26:54;100406.78;;;0.80;62.31
56182;BME280;51963;46.052;14.544;2023-02-08T13:29:21;100403.13;;;0.84;62.67
56182;BME280;51963;46.052;14.544;2023-02-08T13:31:48;100402.94;;;0.69;63.03
56182;BME280;51963;46.052;14.544;2023-02-08T13:34:30;100406.00;;;0.41;63.21
56182;BME280;51963;46.052;14.544;2023-02-08T13:36:58;100413.50;;;0.66;62.85
56182;BME280;51963;46.052;14.544;2023-02-08T13:40:25;100409.41;;;0.61;62.60
56182;BME280;51963;46.052;14.544;2023-02-08T13:42:21;100415.63;;;0.39;63.18
56182;BME280;51963;46.052;14.544;2023-02-08T13:44:48;100414.38;;;0.48;62.92
56182;BME280;51963;46.052;14.544;2023-02-08T13:49:52;100411.34;;;0.38;63.72
56182;BME280;51963;46.052;14.544;2023-02-08T13:57:54;100412.97;;;0.40;63.39
56182;BME280;51963;46.052;14.544;2023-02-08T14:00:25;100411.00;;;0.46;63.53
56182;BME280;51963;46.052;14.544;2023-02-08T14:08:04;100403.78;;;0.70;63.52
56182;BME280;51963;46.052;14.544;2023-02-08T14:10:38;100403.63;;;0.73;62.97
56182;BME280;51963;46.052;14.544;2023-02-08T14:18:43;100407.25;;;0.88;62.26
56182;BME280;51963;46.052;14.544;2023-02-08T14:21:21;100394.50;;;0.64;62.21
56182;BME280;51963;46.052;14.544;2023-02-08T14:23:58;100403.38;;;0.60;63.33
56182;BME280;51963;46.052;14.544;2023-02-08T14:26:24;100398.84;;;0.64;63.47
56182;BME280;51963;46.052;14.544;2023-02-08T14:28:53;100394.66;;;0.61;62.90
56182;BME280;51963;46.052;14.544;2023-02-08T14:31:19;100397.50;;;0.37;63.56
56182;BME280;51963;46.052;14.544;2023-02-08T14:33:53;100396.16;;;0.48;63.71
56182;BME280;51963;46.052;14.544;2023-02-08T14:36:23;100390.19;;;0.46;64.20
56182;BME280;51963;46.052;14.544;2023-02-08T14:38:52;100394.53;;;0.45;64.01
56182;BME280;51963;46.052;14.544;2023-02-08T14:46:47;100387.91;;;0.57;64.87
56182;BME280;51963;46.052;14.544;2023-02-08T14:49:14;100387.06;;;0.56;64.51
56182;BME280;51963;46.052;14.544;2023-02-08T14:51:41;100380.97;;;0.38;64.61
56182;BME280;51963;46.052;14.544;2023-02-08T14:54:43;100382.81;;;0.17;65.38
56182;BME280;51963;46.052;14.544;2023-02-08T14:57:01;100386.03;;;0.41;66.10
56182;BME280;51963;46.052;14.544;2023-02-08T14:59:29;100387.69;;;0.25;66.17
56182;BME280;51963;46.052;14.544;2023-02-08T15:01:56;100381.69;;;0.23;66.84
56182;BME280;51963;46.052;14.544;2023-02-08T15:04:23;100372.06;;;0.25;66.44
56182;BME280;51963;46.052;14.544;2023-02-08T15:09:43;100373.94;;;0.21;67.03
56182;BME280;51963;46.052;14.544;2023-02-08T15:12:15;100379.25;;;0.20;67.30
56182;BME280;51963;46.052;14.544;2023-02-08T15:14:41;100379.31;;;0.18;67.45
56182;BME280;51963;46.052;14.544;2023-02-08T15:17:21;100386.13;;;0.02;67.66
56182;BME280;51963;46.052;14.544;2023-02-08T15:19:50;100381.84;;;0.01;68.42
56182;BME280;51963;46.052;14.544;2023-02-08T15:24:52;100386.97;;;0.02;68.17
56182;BME280;51963;46.052;14.544;2023-02-08T15:27:19;100392.19;;;0.02;68.17